createdAt,value
2018-02-08T00:00:49.116Z,846.83
2018-02-08T00:01:48.978Z,846.84
2018-02-08T00:03:41.665Z,846.83
2018-02-08T00:04:41.479Z,846.82
2018-02-08T00:06:34.120Z,846.84
2018-02-08T00:07:33.981Z,846.82
2018-02-08T00:09:27.513Z,846.84
2018-02-08T00:10:27.330Z,846.83
2018-02-08T00:12:19.970Z,846.87
2018-02-08T00:13:19.830Z,846.83
2018-02-08T00:15:12.514Z,846.84
2018-02-08T00:16:12.333Z,846.82
2018-02-08T00:18:05.822Z,846.86
2018-02-08T00:19:05.678Z,846.87
2018-02-08T00:20:58.369Z,846.83
2018-02-08T00:21:58.188Z,846.82
2018-02-08T00:23:50.828Z,846.82
2018-02-08T00:24:50.685Z,846.80
2018-02-08T00:26:44.219Z,846.78
2018-02-08T00:27:44.040Z,846.78
2018-02-08T00:29:36.692Z,846.85
2018-02-08T00:30:36.548Z,846.87
2018-02-08T00:32:29.218Z,846.84
2018-02-08T00:33:29.044Z,846.83
2018-02-08T00:35:21.719Z,846.83
2018-02-08T00:36:21.546Z,846.85
2018-02-08T00:38:14.244Z,846.88
2018-02-08T00:39:14.058Z,846.87
2018-02-08T00:41:06.711Z,846.86
2018-02-08T00:42:06.570Z,846.89
2018-02-08T00:44:00.104Z,846.88
2018-02-08T00:44:59.911Z,846.90
2018-02-08T00:46:52.555Z,846.91
2018-02-08T00:47:52.412Z,846.89
2018-02-08T00:49:45.098Z,846.91
2018-02-08T00:50:44.911Z,846.88
2018-02-08T00:52:37.550Z,846.91
2018-02-08T00:53:37.409Z,846.94
2018-02-08T00:55:30.109Z,846.92
2018-02-08T00:56:29.920Z,846.93
2018-02-08T00:58:22.565Z,846.94
2018-02-08T00:59:22.425Z,846.93
2018-02-08T01:01:15.108Z,847.00
2018-02-08T01:02:14.924Z,846.98
2018-02-08T01:04:07.567Z,847.03
2018-02-08T01:05:07.422Z,847.04
2018-02-08T01:07:00.099Z,847.07
2018-02-08T01:07:59.921Z,847.07
2018-02-08T01:09:52.608Z,847.10
2018-02-08T01:10:52.422Z,847.12
2018-02-08T01:12:45.063Z,847.08
2018-02-08T01:13:44.919Z,847.10
2018-02-08T01:15:37.596Z,847.12
2018-02-08T01:16:37.423Z,847.13
2018-02-08T01:18:30.066Z,847.10
2018-02-08T01:19:29.919Z,847.18
2018-02-08T01:21:22.606Z,847.17
2018-02-08T01:22:22.420Z,847.17
2018-02-08T01:24:15.063Z,847.14
2018-02-08T01:25:14.919Z,847.19
2018-02-08T01:27:07.607Z,847.20
2018-02-08T01:28:07.422Z,847.17
2018-02-08T01:30:00.066Z,847.26
2018-02-08T01:30:59.922Z,847.22
2018-02-08T01:32:52.605Z,847.20
2018-02-08T01:33:52.418Z,847.19
2018-02-08T01:35:45.063Z,847.21
2018-02-08T01:36:44.920Z,847.21
2018-02-08T01:38:38.454Z,847.21
2018-02-08T01:39:38.270Z,847.16
2018-02-08T01:41:30.919Z,847.19
2018-02-08T01:42:30.780Z,847.22
2018-02-08T01:44:23.448Z,847.23
2018-02-08T01:45:23.279Z,847.25
2018-02-08T01:47:16.821Z,847.20
2018-02-08T01:48:16.643Z,847.20
2018-02-08T01:50:09.292Z,847.18
2018-02-08T01:51:09.144Z,847.21
2018-02-08T01:53:01.834Z,847.19
2018-02-08T01:54:01.646Z,847.17
2018-02-08T01:55:54.291Z,847.20
2018-02-08T01:56:54.149Z,847.22
2018-02-08T01:58:46.831Z,847.26
2018-02-08T01:59:46.650Z,847.29
2018-02-08T02:01:39.292Z,847.24
2018-02-08T02:02:39.148Z,847.24
2018-02-08T02:04:31.833Z,847.22
2018-02-08T02:05:31.650Z,847.19
2018-02-08T02:07:24.295Z,847.18
2018-02-08T02:08:24.154Z,847.18
2018-02-08T02:10:17.694Z,847.18
2018-02-08T02:11:17.509Z,847.17
2018-02-08T02:13:10.147Z,847.17
2018-02-08T02:14:10.007Z,847.19
2018-02-08T02:16:02.693Z,847.18
2018-02-08T02:17:02.508Z,847.20
2018-02-08T02:18:55.152Z,847.18
2018-02-08T02:19:55.006Z,847.19
2018-02-08T02:21:47.678Z,847.18
2018-02-08T02:22:47.512Z,847.21
2018-02-08T02:23:47.373Z,847.17
2018-02-08T02:24:47.238Z,847.21
2018-02-08T02:25:47.103Z,847.19
2018-02-08T02:26:46.972Z,847.16
2018-02-08T02:27:46.834Z,847.19
2018-02-08T02:28:46.704Z,847.15
2018-02-08T02:29:46.568Z,847.14
2018-02-08T02:30:46.433Z,847.18
2018-02-08T02:31:46.298Z,847.15
2018-02-08T02:32:46.165Z,847.12
2018-02-08T02:33:46.031Z,847.15
2018-02-08T02:34:45.897Z,847.15
2018-02-08T02:35:45.760Z,847.16
2018-02-08T02:36:45.628Z,847.12
2018-02-08T02:37:45.492Z,847.10
2018-02-08T02:38:45.361Z,847.14
2018-02-08T02:39:45.222Z,847.16
2018-02-08T02:40:45.140Z,847.13
2018-02-08T02:41:44.955Z,847.13
2018-02-08T02:42:44.822Z,847.13
2018-02-08T02:43:44.685Z,847.14
2018-02-08T02:44:44.549Z,847.19
2018-02-08T02:45:44.416Z,847.15
2018-02-08T02:46:44.282Z,847.18
2018-02-08T02:47:44.147Z,847.19
2018-02-08T02:48:44.010Z,847.19
2018-02-08T02:49:43.878Z,847.22
2018-02-08T02:50:43.741Z,847.21
2018-02-08T02:51:43.606Z,847.21
2018-02-08T02:52:43.474Z,847.22
2018-02-08T02:53:43.338Z,847.24
2018-02-08T02:54:43.203Z,847.23
2018-02-08T02:55:43.068Z,847.18
2018-02-08T02:56:42.940Z,847.21
2018-02-08T02:57:42.800Z,847.23
2018-02-08T02:58:42.665Z,847.27
2018-02-08T02:59:42.530Z,847.24
2018-02-08T03:00:42.396Z,847.24
2018-02-08T03:01:42.267Z,847.24
2018-02-08T03:02:42.128Z,847.23
2018-02-08T03:03:41.992Z,847.26
2018-02-08T03:04:41.857Z,847.24
2018-02-08T03:05:41.725Z,847.26
2018-02-08T03:06:41.588Z,847.25
2018-02-08T03:07:41.455Z,847.25
2018-02-08T03:08:41.319Z,847.23
2018-02-08T03:09:41.187Z,847.25
2018-02-08T03:10:41.053Z,847.23
2018-02-08T03:11:40.916Z,847.25
2018-02-08T03:12:40.783Z,847.23
2018-02-08T03:13:40.647Z,847.21
2018-02-08T03:14:40.513Z,847.22
2018-02-08T03:15:40.378Z,847.24
2018-02-08T03:16:40.250Z,847.24
2018-02-08T03:17:40.111Z,847.24
2018-02-08T03:18:39.976Z,847.22
2018-02-08T03:19:39.844Z,847.23
2018-02-08T03:20:39.705Z,847.25
2018-02-08T03:21:39.573Z,847.28
2018-02-08T03:22:39.438Z,847.28
2018-02-08T03:23:39.303Z,847.27
2018-02-08T03:24:39.170Z,847.23
2018-02-08T03:25:39.035Z,847.26
2018-02-08T03:26:38.899Z,847.27
2018-02-08T03:27:38.766Z,847.29
2018-02-08T03:28:38.630Z,847.32
2018-02-08T03:29:38.496Z,847.34
2018-02-08T03:30:38.365Z,847.35
2018-02-08T03:31:38.228Z,847.34
2018-02-08T03:32:38.095Z,847.37
2018-02-08T03:33:37.957Z,847.35
2018-02-08T03:34:37.828Z,847.37
2018-02-08T03:35:37.691Z,847.35
2018-02-08T03:36:37.556Z,847.36
2018-02-08T03:37:37.426Z,847.38
2018-02-08T03:38:37.289Z,847.37
2018-02-08T03:39:37.155Z,847.41
2018-02-08T03:40:37.018Z,847.40
2018-02-08T03:41:36.886Z,847.41
2018-02-08T03:42:36.749Z,847.43
2018-02-08T03:43:36.614Z,847.43
2018-02-08T03:44:36.481Z,847.45
2018-02-08T03:45:36.349Z,847.41
2018-02-08T03:46:36.211Z,847.45
2018-02-08T03:47:36.078Z,847.49
2018-02-08T03:48:35.944Z,847.45
2018-02-08T03:49:35.810Z,847.46
2018-02-08T03:50:35.676Z,847.46
2018-02-08T03:51:35.542Z,847.45
2018-02-08T03:52:35.406Z,847.43
2018-02-08T03:53:35.271Z,847.43
2018-02-08T03:54:35.135Z,847.47
2018-02-08T03:55:35.000Z,847.47
2018-02-08T03:56:34.866Z,847.46
2018-02-08T03:57:34.734Z,847.46
2018-02-08T03:58:34.599Z,847.44
2018-02-08T03:59:34.462Z,847.50
2018-02-08T04:00:34.328Z,847.47
2018-02-08T04:01:34.195Z,847.49
2018-02-08T04:02:34.060Z,847.49
2018-02-08T04:03:33.925Z,847.47
2018-02-08T04:04:33.788Z,847.52
2018-02-08T04:05:33.665Z,847.49
2018-02-08T04:06:33.523Z,847.53
2018-02-08T04:07:33.387Z,847.50
2018-02-08T04:08:33.250Z,847.53
2018-02-08T04:09:33.118Z,847.49
2018-02-08T04:10:32.983Z,847.53
2018-02-08T04:11:32.848Z,847.53
2018-02-08T04:12:32.714Z,847.50
2018-02-08T04:13:32.576Z,847.50
2018-02-08T04:14:32.444Z,847.50
2018-02-08T04:15:32.309Z,847.50
2018-02-08T04:16:32.176Z,847.50
2018-02-08T04:17:32.039Z,847.51
2018-02-08T04:18:31.907Z,847.51
2018-02-08T04:19:31.768Z,847.53
2018-02-08T04:20:31.634Z,847.54
2018-02-08T04:21:31.501Z,847.53
2018-02-08T04:22:31.366Z,847.54
2018-02-08T04:23:31.230Z,847.54
2018-02-08T04:24:31.099Z,847.50
2018-02-08T04:25:30.961Z,847.57
2018-02-08T04:26:30.828Z,847.54
2018-02-08T04:27:30.694Z,847.51
2018-02-08T04:28:30.560Z,847.54
2018-02-08T04:29:30.426Z,847.52
2018-02-08T04:30:30.289Z,847.58
2018-02-08T04:31:30.153Z,847.57
2018-02-08T04:32:30.021Z,847.59
2018-02-08T04:33:29.883Z,847.59
2018-02-08T04:34:29.748Z,847.58
2018-02-08T04:35:29.613Z,847.62
2018-02-08T04:36:29.480Z,847.56
2018-02-08T04:37:29.345Z,847.63
2018-02-08T04:38:29.211Z,847.62
2018-02-08T04:39:29.075Z,847.58
2018-02-08T04:40:28.942Z,847.61
2018-02-08T04:41:28.806Z,847.59
2018-02-08T04:42:28.673Z,847.62
2018-02-08T04:43:28.536Z,847.65
2018-02-08T04:44:28.403Z,847.59
2018-02-08T04:45:28.266Z,847.62
2018-02-08T04:46:28.136Z,847.66
2018-02-08T04:47:27.999Z,847.64
2018-02-08T04:48:27.863Z,847.64
2018-02-08T04:49:27.730Z,847.65
2018-02-08T04:50:27.594Z,847.65
2018-02-08T04:51:27.464Z,847.65
2018-02-08T04:52:27.325Z,847.62
2018-02-08T04:53:27.195Z,847.65
2018-02-08T04:54:27.060Z,847.67
2018-02-08T04:55:26.923Z,847.70
2018-02-08T04:56:26.788Z,847.70
2018-02-08T04:57:26.650Z,847.68
2018-02-08T04:58:26.522Z,847.68
2018-02-08T04:59:26.382Z,847.69
2018-02-08T05:00:26.249Z,847.71
2018-02-08T05:01:26.115Z,847.69
2018-02-08T05:02:25.983Z,847.70
2018-02-08T05:03:25.847Z,847.68
2018-02-08T05:04:25.713Z,847.67
2018-02-08T05:05:25.576Z,847.71
2018-02-08T05:06:25.445Z,847.75
2018-02-08T05:07:25.309Z,847.72
2018-02-08T05:08:29.626Z,847.68
2018-02-08T05:09:25.042Z,847.68
2018-02-08T05:10:24.906Z,847.74
2018-02-08T05:11:24.792Z,847.70
2018-02-08T05:12:24.640Z,847.69
2018-02-08T05:13:24.513Z,847.72
2018-02-08T05:14:24.372Z,847.72
2018-02-08T05:15:24.236Z,847.72
2018-02-08T05:16:24.100Z,847.75
2018-02-08T05:17:23.973Z,847.70
2018-02-08T05:18:23.834Z,847.72
2018-02-08T05:19:23.707Z,847.77
2018-02-08T05:20:23.567Z,847.79
2018-02-08T05:21:23.434Z,847.83
2018-02-08T05:22:23.296Z,847.79
2018-02-08T05:23:23.161Z,847.78
2018-02-08T05:24:23.027Z,847.76
2018-02-08T05:25:22.893Z,847.79
2018-02-08T05:26:22.761Z,847.75
2018-02-08T05:27:22.623Z,847.77
2018-02-08T05:28:24.759Z,847.81
2018-02-08T05:29:22.357Z,847.80
2018-02-08T05:30:22.226Z,847.79
2018-02-08T05:31:22.084Z,847.84
2018-02-08T05:32:21.989Z,847.82
2018-02-08T05:33:22.760Z,847.83
2018-02-08T05:34:21.792Z,847.79
2018-02-08T05:35:21.644Z,847.81
2018-02-08T05:36:21.413Z,847.86
2018-02-08T05:37:21.281Z,847.87
2018-02-08T05:38:21.146Z,847.83
2018-02-08T05:39:21.009Z,847.86
2018-02-08T05:40:20.872Z,847.88
2018-02-08T05:41:20.824Z,847.87
2018-02-08T05:42:20.605Z,847.88
2018-02-08T05:43:20.468Z,847.90
2018-02-08T05:44:20.335Z,847.92
2018-02-08T05:45:20.203Z,847.91
2018-02-08T05:46:20.066Z,847.95
2018-02-08T05:47:19.943Z,847.97
2018-02-08T05:48:19.795Z,847.97
2018-02-08T05:49:19.663Z,848.02
2018-02-08T05:50:19.526Z,848.01
2018-02-08T05:51:19.393Z,848.07
2018-02-08T05:52:19.257Z,848.07
2018-02-08T05:53:19.123Z,848.06
2018-02-08T05:54:18.987Z,848.10
2018-02-08T05:55:18.851Z,848.05
2018-02-08T05:56:18.718Z,848.07
2018-02-08T05:57:18.582Z,848.11
2018-02-08T05:58:18.447Z,848.12
2018-02-08T05:59:18.314Z,848.11
2018-02-08T06:00:18.223Z,848.17
2018-02-08T06:01:18.049Z,848.16
2018-02-08T06:02:17.911Z,848.16
2018-02-08T06:03:17.774Z,848.19
2018-02-08T06:04:17.645Z,848.18
2018-02-08T06:05:17.506Z,848.20
2018-02-08T06:06:17.373Z,848.18
2018-02-08T06:07:17.235Z,848.23
2018-02-08T06:08:17.101Z,848.26
2018-02-08T06:09:16.968Z,848.25
2018-02-08T06:10:16.834Z,848.22
2018-02-08T06:11:16.699Z,848.27
2018-02-08T06:12:16.568Z,848.30
2018-02-08T06:13:16.429Z,848.30
2018-02-08T06:14:16.295Z,848.33
2018-02-08T06:15:16.160Z,848.32
2018-02-08T06:16:16.027Z,848.34
2018-02-08T06:17:15.892Z,848.34
2018-02-08T06:18:15.758Z,848.37
2018-02-08T06:19:15.625Z,848.38
2018-02-08T06:20:15.491Z,848.35
2018-02-08T06:21:15.356Z,848.35
2018-02-08T06:22:15.222Z,848.35
2018-02-08T06:23:15.089Z,848.38
2018-02-08T06:24:14.952Z,848.35
2018-02-08T06:25:14.819Z,848.33
2018-02-08T06:26:14.682Z,848.37
2018-02-08T06:27:14.550Z,848.36
2018-02-08T06:28:14.416Z,848.38
2018-02-08T06:29:14.282Z,848.37
2018-02-08T06:30:14.148Z,848.37
2018-02-08T06:31:14.012Z,848.40
2018-02-08T06:32:13.879Z,848.40
2018-02-08T06:33:13.743Z,848.39
2018-02-08T06:34:13.610Z,848.44
2018-02-08T06:35:13.474Z,848.42
2018-02-08T06:36:13.341Z,848.42
2018-02-08T06:37:13.208Z,848.44
2018-02-08T06:38:13.074Z,848.43
2018-02-08T06:39:12.939Z,848.45
2018-02-08T06:40:12.804Z,848.48
2018-02-08T06:41:12.677Z,848.47
2018-02-08T06:42:12.534Z,848.50
2018-02-08T06:43:12.398Z,848.53
2018-02-08T06:44:12.265Z,848.56
2018-02-08T06:45:12.129Z,848.55
2018-02-08T06:46:11.997Z,848.58
2018-02-08T06:47:11.868Z,848.57
2018-02-08T06:48:11.729Z,848.60
2018-02-08T06:49:11.592Z,848.59
2018-02-08T06:50:11.458Z,848.58
2018-02-08T06:51:11.324Z,848.65
2018-02-08T06:52:11.192Z,848.62
2018-02-08T06:53:11.054Z,848.63
2018-02-08T06:54:10.921Z,848.62
2018-02-08T06:55:10.790Z,848.67
2018-02-08T06:56:10.655Z,848.66
2018-02-08T06:57:10.518Z,848.63
2018-02-08T06:58:10.424Z,848.63
2018-02-08T06:59:10.247Z,848.69
2018-02-08T07:00:10.116Z,848.70
2018-02-08T07:01:09.980Z,848.72
2018-02-08T07:02:09.845Z,848.72
2018-02-08T07:03:09.716Z,848.74
2018-02-08T07:04:09.576Z,848.74
2018-02-08T07:05:09.443Z,848.76
2018-02-08T07:06:09.306Z,848.79
2018-02-08T07:07:09.171Z,848.79
2018-02-08T07:08:09.037Z,848.80
2018-02-08T07:09:08.920Z,848.78
2018-02-08T07:10:08.769Z,848.79
2018-02-08T07:11:08.633Z,848.78
2018-02-08T07:12:08.499Z,848.78
2018-02-08T07:13:08.364Z,848.77
2018-02-08T07:14:08.228Z,848.78
2018-02-08T07:15:08.093Z,848.78
2018-02-08T07:16:07.961Z,848.79
2018-02-08T07:17:07.822Z,848.83
2018-02-08T07:18:07.689Z,848.85
2018-02-08T07:19:07.555Z,848.83
2018-02-08T07:20:07.423Z,848.85
2018-02-08T07:21:07.287Z,848.91
2018-02-08T07:22:07.154Z,848.92
2018-02-08T07:23:07.016Z,848.91
2018-02-08T07:24:06.881Z,848.94
2018-02-08T07:25:06.748Z,848.93
2018-02-08T07:26:06.615Z,848.94
2018-02-08T07:27:06.477Z,848.95
2018-02-08T07:28:06.345Z,848.97
2018-02-08T07:29:06.210Z,848.97
2018-02-08T07:30:06.078Z,848.98
2018-02-08T07:31:05.942Z,849.01
2018-02-08T07:32:05.805Z,848.99
2018-02-08T07:33:05.674Z,849.00
2018-02-08T07:34:05.542Z,849.05
2018-02-08T07:35:05.403Z,848.99
2018-02-08T07:36:05.270Z,849.02
2018-02-08T07:37:05.138Z,849.04
2018-02-08T07:38:05.003Z,849.00
2018-02-08T07:39:04.869Z,849.03
2018-02-08T07:40:04.736Z,849.04
2018-02-08T07:41:04.600Z,849.06
2018-02-08T07:42:04.462Z,849.08
2018-02-08T07:43:04.329Z,849.09
2018-02-08T07:44:04.198Z,849.10
2018-02-08T07:45:04.061Z,849.10
2018-02-08T07:46:03.926Z,849.08
2018-02-08T07:47:03.833Z,849.07
2018-02-08T07:48:03.657Z,849.13
2018-02-08T07:49:10.325Z,849.13
2018-02-08T07:50:03.386Z,849.09
2018-02-08T07:51:03.254Z,849.13
2018-02-08T07:52:03.119Z,849.12
2018-02-08T07:53:02.982Z,849.11
2018-02-08T07:54:02.853Z,849.15
2018-02-08T07:55:02.715Z,849.11
2018-02-08T07:56:02.580Z,849.17
2018-02-08T07:57:02.456Z,849.14
2018-02-08T07:58:02.310Z,849.16
2018-02-08T07:59:02.184Z,849.13
2018-02-08T08:00:02.043Z,849.14
2018-02-08T08:01:01.906Z,849.12
2018-02-08T08:02:01.773Z,849.12
2018-02-08T08:03:01.637Z,849.13
2018-02-08T08:04:01.502Z,849.20
2018-02-08T08:05:01.368Z,849.17
2018-02-08T08:06:01.234Z,849.22
2018-02-08T08:07:01.097Z,849.18
2018-02-08T08:08:00.964Z,849.19
2018-02-08T08:09:00.833Z,849.18
2018-02-08T08:10:00.695Z,849.18
2018-02-08T08:11:00.559Z,849.16
2018-02-08T08:12:00.426Z,849.17
2018-02-08T08:13:00.298Z,849.17
2018-02-08T08:14:00.155Z,849.13
2018-02-08T08:15:00.025Z,849.13
2018-02-08T08:15:59.885Z,849.16
2018-02-08T08:16:59.751Z,849.14
2018-02-08T08:17:59.622Z,849.16
2018-02-08T08:18:59.487Z,849.15
2018-02-08T08:19:59.380Z,849.15
2018-02-08T08:20:59.215Z,849.14
2018-02-08T08:21:59.080Z,849.24
2018-02-08T08:22:58.943Z,849.19
2018-02-08T08:23:58.809Z,849.21
2018-02-08T08:24:58.677Z,849.21
2018-02-08T08:25:58.544Z,849.18
2018-02-08T08:26:58.437Z,849.21
2018-02-08T08:27:58.270Z,849.22
2018-02-08T08:28:58.138Z,849.26
2018-02-08T08:29:58.003Z,849.25
2018-02-08T08:30:57.870Z,849.25
2018-02-08T08:31:57.739Z,849.25
2018-02-08T08:32:57.603Z,849.27
2018-02-08T08:33:57.468Z,849.25
2018-02-08T08:34:57.332Z,849.31
2018-02-08T08:35:57.194Z,849.31
2018-02-08T08:36:57.061Z,849.31
2018-02-08T08:37:56.927Z,849.33
2018-02-08T08:38:56.798Z,849.33
2018-02-08T08:39:56.657Z,849.35
2018-02-08T08:40:56.524Z,849.31
2018-02-08T08:41:56.392Z,849.34
2018-02-08T08:42:56.259Z,849.36
2018-02-08T08:43:56.121Z,849.32
2018-02-08T08:44:55.989Z,849.34
2018-02-08T08:45:55.853Z,849.35
2018-02-08T08:46:55.719Z,849.33
2018-02-08T08:47:55.589Z,849.34
2018-02-08T08:48:55.453Z,849.34
2018-02-08T08:49:55.318Z,849.37
2018-02-08T08:50:55.832Z,849.38
2018-02-08T08:51:55.051Z,849.39
2018-02-08T08:52:54.918Z,849.41
2018-02-08T08:53:54.783Z,849.40
2018-02-08T08:54:54.649Z,849.39
2018-02-08T08:55:54.512Z,849.41
2018-02-08T08:56:54.380Z,849.47
2018-02-08T08:57:54.247Z,849.45
2018-02-08T08:58:54.112Z,849.42
2018-02-08T08:59:53.976Z,849.49
2018-02-08T09:00:53.844Z,849.45
2018-02-08T09:01:53.707Z,849.49
2018-02-08T09:02:53.572Z,849.45
2018-02-08T09:03:53.441Z,849.48
2018-02-08T09:04:53.308Z,849.47
2018-02-08T09:05:53.190Z,849.49
2018-02-08T09:06:53.037Z,849.50
2018-02-08T09:07:52.902Z,849.48
2018-02-08T09:08:52.768Z,849.49
2018-02-08T09:09:52.636Z,849.48
2018-02-08T09:10:52.501Z,849.53
2018-02-08T09:11:52.386Z,849.55
2018-02-08T09:12:52.230Z,849.53
2018-02-08T09:13:52.100Z,849.56
2018-02-08T09:14:51.963Z,849.55
2018-02-08T09:15:51.829Z,849.55
2018-02-08T09:16:51.696Z,849.57
2018-02-08T09:17:51.561Z,849.58
2018-02-08T09:18:51.425Z,849.58
2018-02-08T09:19:51.291Z,849.57
2018-02-08T09:20:51.157Z,849.59
2018-02-08T09:21:51.025Z,849.58
2018-02-08T09:22:50.890Z,849.59
2018-02-08T09:23:50.754Z,849.61
2018-02-08T09:24:50.621Z,849.61
2018-02-08T09:25:50.489Z,849.61
2018-02-08T09:26:50.352Z,849.60
2018-02-08T09:27:50.214Z,849.60
2018-02-08T09:28:50.083Z,849.60
2018-02-08T09:29:49.949Z,849.59
2018-02-08T09:30:49.817Z,849.60
2018-02-08T09:31:49.679Z,849.61
2018-02-08T09:32:49.546Z,849.61
2018-02-08T09:33:49.411Z,849.60
2018-02-08T09:34:49.276Z,849.61
2018-02-08T09:35:49.144Z,849.60
2018-02-08T09:36:49.008Z,849.62
2018-02-08T09:37:48.879Z,849.61
2018-02-08T09:38:48.742Z,849.60
2018-02-08T09:39:48.608Z,849.56
2018-02-08T09:40:48.479Z,849.57
2018-02-08T09:41:48.341Z,849.58
2018-02-08T09:42:48.206Z,849.60
2018-02-08T09:43:48.076Z,849.60
2018-02-08T09:44:47.941Z,849.62
2018-02-08T09:45:47.807Z,849.61
2018-02-08T09:46:47.669Z,849.59
2018-02-08T09:47:47.534Z,849.59
2018-02-08T09:48:47.401Z,849.57
2018-02-08T09:49:47.267Z,849.61
2018-02-08T09:50:47.133Z,849.62
2018-02-08T09:51:47.001Z,849.63
2018-02-08T09:52:46.866Z,849.64
2018-02-08T09:53:46.736Z,849.63
2018-02-08T09:54:46.597Z,849.59
2018-02-08T09:55:46.464Z,849.62
2018-02-08T09:56:46.331Z,849.61
2018-02-08T09:57:46.198Z,849.60
2018-02-08T09:58:46.064Z,849.59
2018-02-08T09:59:45.931Z,849.59
2018-02-08T10:00:45.802Z,849.58
2018-02-08T10:01:45.666Z,849.56
2018-02-08T10:02:45.534Z,849.60
2018-02-08T10:03:45.401Z,849.57
2018-02-08T10:04:45.268Z,849.58
2018-02-08T10:05:45.133Z,849.57
2018-02-08T10:06:45.000Z,849.60
2018-02-08T10:07:44.867Z,849.57
2018-02-08T10:08:44.735Z,849.58
2018-02-08T10:09:44.602Z,849.57
2018-02-08T10:10:44.468Z,849.55
2018-02-08T10:11:44.334Z,849.59
2018-02-08T10:12:44.203Z,849.57
2018-02-08T10:13:44.070Z,849.58
2018-02-08T10:14:43.937Z,849.59
2018-02-08T10:15:43.803Z,849.58
2018-02-08T10:16:43.671Z,849.59
2018-02-08T10:17:43.540Z,849.57
2018-02-08T10:18:43.405Z,849.59
2018-02-08T10:19:43.279Z,849.61
2018-02-08T10:20:43.141Z,849.61
2018-02-08T10:21:43.008Z,849.61
2018-02-08T10:22:42.878Z,849.57
2018-02-08T10:23:42.744Z,849.59
2018-02-08T10:24:42.611Z,849.61
2018-02-08T10:25:42.478Z,849.59
2018-02-08T10:26:42.346Z,849.58
2018-02-08T10:27:42.215Z,849.55
2018-02-08T10:28:42.082Z,849.59
2018-02-08T10:29:41.949Z,849.59
2018-02-08T10:30:41.815Z,849.55
2018-02-08T10:31:41.684Z,849.52
2018-02-08T10:32:41.554Z,849.54
2018-02-08T10:33:41.421Z,849.53
2018-02-08T10:34:41.288Z,849.55
2018-02-08T10:35:41.156Z,849.57
2018-02-08T10:36:41.025Z,849.51
2018-02-08T10:37:40.891Z,849.53
2018-02-08T10:38:40.759Z,849.52
2018-02-08T10:39:40.628Z,849.55
2018-02-08T10:40:40.494Z,849.54
2018-02-08T10:41:40.362Z,849.53
2018-02-08T10:42:40.229Z,849.58
2018-02-08T10:43:40.096Z,849.57
2018-02-08T10:44:39.966Z,849.57
2018-02-08T10:45:39.831Z,849.61
2018-02-08T10:46:39.699Z,849.61
2018-02-08T10:47:39.566Z,849.58
2018-02-08T10:48:39.436Z,849.61
2018-02-08T10:49:39.304Z,849.59
2018-02-08T10:50:39.172Z,849.59
2018-02-08T10:51:39.039Z,849.56
2018-02-08T10:52:38.907Z,849.56
2018-02-08T10:53:38.774Z,849.56
2018-02-08T10:54:38.643Z,849.57
2018-02-08T10:55:38.512Z,849.56
2018-02-08T10:56:38.385Z,849.59
2018-02-08T10:57:38.274Z,849.57
2018-02-08T10:58:38.114Z,849.60
2018-02-08T10:59:37.983Z,849.55
2018-02-08T11:00:37.853Z,849.58
2018-02-08T11:01:37.720Z,849.56
2018-02-08T11:02:37.589Z,849.59
2018-02-08T11:03:37.461Z,849.57
2018-02-08T11:04:37.327Z,849.56
2018-02-08T11:05:37.195Z,849.52
2018-02-08T11:06:37.063Z,849.56
2018-02-08T11:07:36.937Z,849.53
2018-02-08T11:08:36.804Z,849.57
2018-02-08T11:09:36.676Z,849.57
2018-02-08T11:10:36.542Z,849.59
2018-02-08T11:11:36.410Z,849.58
2018-02-08T11:12:36.281Z,849.58
2018-02-08T11:13:36.146Z,849.54
2018-02-08T11:14:36.018Z,849.56
2018-02-08T11:15:35.887Z,849.57
2018-02-08T11:16:35.753Z,849.55
2018-02-08T11:17:35.626Z,849.54
2018-02-08T11:18:35.490Z,849.51
2018-02-08T11:19:35.362Z,849.55
2018-02-08T11:20:35.231Z,849.50
2018-02-08T11:21:35.101Z,849.54
2018-02-08T11:22:34.968Z,849.50
2018-02-08T11:23:35.799Z,849.53
2018-02-08T11:24:34.704Z,849.52
2018-02-08T11:25:34.574Z,849.54
2018-02-08T11:26:34.440Z,849.53
2018-02-08T11:27:34.314Z,849.55
2018-02-08T11:28:34.179Z,849.57
2018-02-08T11:29:34.047Z,849.60
2018-02-08T11:30:33.915Z,849.58
2018-02-08T11:31:33.784Z,849.61
2018-02-08T11:32:33.652Z,849.60
2018-02-08T11:33:33.523Z,849.58
2018-02-08T11:34:33.388Z,849.57
2018-02-08T11:35:33.256Z,849.58
2018-02-08T11:36:33.126Z,849.56
2018-02-08T11:37:32.992Z,849.55
2018-02-08T11:38:32.861Z,849.56
2018-02-08T11:39:32.729Z,849.55
2018-02-08T11:40:32.598Z,849.53
2018-02-08T11:41:32.467Z,849.52
2018-02-08T11:42:32.337Z,849.53
2018-02-08T11:43:32.203Z,849.46
2018-02-08T11:44:32.072Z,849.51
2018-02-08T11:45:31.943Z,849.51
2018-02-08T11:46:31.810Z,849.50
2018-02-08T11:47:31.678Z,849.46
2018-02-08T11:48:31.548Z,849.48
2018-02-08T11:49:31.414Z,849.45
2018-02-08T11:50:31.282Z,849.47
2018-02-08T11:51:31.153Z,849.47
2018-02-08T11:52:31.802Z,849.47
2018-02-08T11:53:30.886Z,849.45
2018-02-08T11:54:30.755Z,849.44
2018-02-08T11:55:30.626Z,849.43
2018-02-08T11:56:30.490Z,849.40
2018-02-08T11:57:30.359Z,849.42
2018-02-08T11:58:30.227Z,849.44
2018-02-08T11:59:30.093Z,849.40
2018-02-08T12:00:29.963Z,849.45
2018-02-08T12:01:29.830Z,849.44
2018-02-08T12:02:29.699Z,849.41
2018-02-08T12:03:29.567Z,849.43
2018-02-08T12:04:29.438Z,849.48
2018-02-08T12:05:29.305Z,849.40
2018-02-08T12:06:29.169Z,849.43
2018-02-08T12:07:29.038Z,849.41
2018-02-08T12:08:28.915Z,849.43
2018-02-08T12:09:28.777Z,849.42
2018-02-08T12:10:28.643Z,849.42
2018-02-08T12:11:28.510Z,849.39
2018-02-08T12:12:28.381Z,849.40
2018-02-08T12:13:28.250Z,849.40
2018-02-08T12:14:28.116Z,849.44
2018-02-08T12:15:27.985Z,849.40
2018-02-08T12:16:27.854Z,849.41
2018-02-08T12:17:27.725Z,849.43
2018-02-08T12:18:27.590Z,849.44
2018-02-08T12:19:27.461Z,849.44
2018-02-08T12:20:27.331Z,849.45
2018-02-08T12:21:27.958Z,849.44
2018-02-08T12:22:27.067Z,849.48
2018-02-08T12:23:26.934Z,849.43
2018-02-08T12:24:26.804Z,849.40
2018-02-08T12:25:26.671Z,849.42
2018-02-08T12:26:26.540Z,849.37
2018-02-08T12:27:26.409Z,849.39
2018-02-08T12:28:26.276Z,849.40
2018-02-08T12:29:26.146Z,849.37
2018-02-08T12:30:26.014Z,849.38
2018-02-08T12:31:25.887Z,849.39
2018-02-08T12:32:25.749Z,849.39
2018-02-08T12:33:25.624Z,849.41
2018-02-08T12:34:25.489Z,849.37
2018-02-08T12:35:25.358Z,849.37
2018-02-08T12:36:25.226Z,849.34
2018-02-08T12:37:25.095Z,849.30
2018-02-08T12:38:24.962Z,849.30
2018-02-08T12:39:24.832Z,849.28
2018-02-08T12:40:24.703Z,849.29
2018-02-08T12:41:24.578Z,849.28
2018-02-08T12:42:24.433Z,849.26
2018-02-08T12:43:24.304Z,849.23
2018-02-08T12:44:24.174Z,849.24
2018-02-08T12:45:24.041Z,849.24
2018-02-08T12:46:23.908Z,849.21
2018-02-08T12:47:23.775Z,849.23
2018-02-08T12:48:23.650Z,849.19
2018-02-08T12:49:23.516Z,849.23
2018-02-08T12:50:23.962Z,849.19
2018-02-08T12:51:23.250Z,849.21
2018-02-08T12:52:23.119Z,849.20
2018-02-08T12:53:22.989Z,849.19
2018-02-08T12:54:22.855Z,849.23
2018-02-08T12:55:22.723Z,849.20
2018-02-08T12:56:22.595Z,849.22
2018-02-08T12:57:22.465Z,849.23
2018-02-08T12:58:22.329Z,849.20
2018-02-08T12:59:22.199Z,849.18
2018-02-08T13:00:22.066Z,849.21
2018-02-08T13:01:21.932Z,849.25
2018-02-08T13:02:21.801Z,849.19
2018-02-08T13:03:21.674Z,849.25
2018-02-08T13:04:21.540Z,849.23
2018-02-08T13:05:21.408Z,849.25
2018-02-08T13:06:21.276Z,849.22
2018-02-08T13:07:21.144Z,849.24
2018-02-08T13:08:22.016Z,849.21
2018-02-08T13:09:20.881Z,849.25
2018-02-08T13:10:20.750Z,849.24